Time;durP1;ratioP1;P1;durP2;ratioP2;P2;SDS_P1;SDS_P2;PMS_P1;PMS_P2;Temp;Humidity;BMP_temperature;BMP_pressure;BME280_temperature;BME280_humidity;BME280_pressure;Samples;Min_cycle;Max_cycle;Signal;HPM_P1;HPM_P2
2023/08/15 00:00:40;;;;;;;9.43;6.03;;;;;;;-143.84;70.96;45043.34;5089446;28;20529;-50
2023/08/15 00:03:07;;;;;;;10.10;6.23;;;;;;;-143.84;71.24;45049.06;5089071;28;21186;-50
2023/08/15 00:05:37;;;;;;;9.13;5.63;;;;;;;-143.84;71.89;45024.31;5089816;28;20497;-51
2023/08/15 00:08:04;;;;;;;12.10;6.03;;;;;;;-143.84;72.12;45014.78;5089810;28;20448;-50
2023/08/15 00:10:31;;;;;;;10.33;5.50;;;;;;;-143.84;71.92;44997.66;5089599;28;20556;-50
2023/08/15 00:12:59;;;;;;;7.23;6.20;;;;;;;-143.84;71.59;45020.50;5090073;28;20436;-50
2023/08/15 00:15:26;;;;;;;10.20;5.80;;;;;;;-143.84;71.54;45014.78;5089482;28;20443;-51
2023/08/15 00:17:54;;;;;;;20.07;6.20;;;;;;;-143.84;71.05;45024.31;5089780;28;21037;-50
2023/08/15 00:20:21;;;;;;;7.23;5.20;;;;;;;-143.84;70.80;45018.59;5089368;28;21152;-50
2023/08/15 00:22:49;;;;;;;15.63;6.27;;;;;;;-143.84;71.12;44999.56;5089532;28;20427;-51
2023/08/15 00:25:16;;;;;;;12.80;6.00;;;;;;;-143.84;70.97;45012.88;5089285;28;20436;-51
2023/08/15 00:27:43;;;;;;;9.87;5.57;;;;;;;-143.84;70.60;45024.31;5089139;28;20944;-51
2023/08/15 00:30:11;;;;;;;8.40;5.83;;;;;;;-143.84;70.31;45003.38;5089149;28;20455;-51
2023/08/15 00:32:38;;;;;;;7.30;5.90;;;;;;;-143.84;69.94;45018.59;5089312;28;20444;-51
2023/08/15 00:35:07;;;;;;;15.83;5.00;;;;;;;-143.84;69.65;45010.97;5089436;28;21012;-51
2023/08/15 00:37:35;;;;;;;13.43;5.80;;;;;;;-143.84;69.72;45005.28;5089153;28;20436;-52
2023/08/15 00:40:02;;;;;;;8.23;5.60;;;;;;;-143.84;69.91;45024.31;5090549;28;20529;-51
2023/08/15 00:42:29;;;;;;;9.00;5.10;;;;;;;-143.84;70.38;45018.59;5092768;28;20444;-56
2023/08/15 00:44:57;;;;;;;8.30;5.20;;;;;;;-143.84;70.71;45018.59;5092418;28;20962;-56
2023/08/15 00:47:25;;;;;;;6.67;5.63;;;;;;;-143.84;71.09;45010.97;5092559;28;20436;-56
2023/08/15 00:49:54;;;;;;;12.63;5.87;;;;;;;-143.84;71.46;45031.94;5092300;28;20440;-56
2023/08/15 00:52:23;;;;;;;6.57;5.90;;;;;;;-143.84;71.68;45014.78;5092368;28;20435;-56
2023/08/15 00:54:52;;;;;;;7.50;5.67;;;;;;;-143.84;72.22;45012.88;5092149;28;20497;-56
2023/08/15 00:57:20;;;;;;;6.07;4.80;;;;;;;-143.84;72.76;45033.84;5092043;28;20436;-56
2023/08/15 00:59:47;;;;;;;11.50;5.93;;;;;;;-143.84;73.39;45007.19;5091955;28;20536;-56
2023/08/15 01:02:14;;;;;;;14.40;5.73;;;;;;;-143.84;74.25;45022.41;5092201;28;20444;-56
2023/08/15 01:04:42;;;;;;;7.70;5.50;;;;;;;-143.84;74.32;44972.91;5091930;28;20489;-56
2023/08/15 01:07:10;;;;;;;9.00;5.97;;;;;;;-143.84;74.55;45012.88;5091771;28;20481;-56
2023/08/15 01:09:39;;;;;;;8.83;5.70;;;;;;;-143.84;74.52;45003.38;5091840;28;20443;-56
2023/08/15 01:12:13;;;;;;;11.10;6.43;;;;;;;-143.84;74.84;45028.13;5091585;28;20446;-56
2023/08/15 01:14:46;;;;;;;8.73;6.70;;;;;;;-143.84;74.87;45009.09;5091387;28;20531;-56
2023/08/15 01:17:19;;;;;;;13.13;6.97;;;;;;;-143.84;75.26;45024.31;5091990;28;20520;-56
2023/08/15 01:19:49;;;;;;;13.13;6.67;;;;;;;-143.84;75.82;45016.69;5091562;28;20483;-56
2023/08/15 01:22:21;;;;;;;8.00;6.53;;;;;;;-143.84;75.50;45037.66;5091801;28;20439;-56
2023/08/15 01:24:50;;;;;;;10.00;6.27;;;;;;;-143.84;75.52;45033.84;5091771;28;21202;-56
2023/08/15 01:27:17;;;;;;;9.40;6.00;;;;;;;-143.84;75.48;44997.66;5091501;28;20523;-56
2023/08/15 01:29:45;;;;;;;14.00;6.00;;;;;;;-143.84;75.36;45052.88;5091577;28;20502;-56
2023/08/15 01:32:17;;;;;;;7.70;5.80;;;;;;;-143.84;75.58;45035.75;5091555;28;20942;-56
2023/08/15 01:34:51;;;;;;;13.70;7.07;;;;;;;-143.84;76.12;45001.47;5091334;28;20435;-56
2023/08/15 01:37:25;;;;;;;21.83;7.33;;;;;;;-143.84;77.90;45018.59;5091266;28;20871;-55
2023/08/15 01:39:57;;;;;;;18.17;7.30;;;;;;;-143.84;78.27;45010.97;5091166;28;20490;-56
2023/08/15 01:42:25;;;;;;;17.43;7.00;;;;;;;-143.84;78.34;45018.59;5091006;28;20549;-55
2023/08/15 01:44:54;;;;;;;16.93;6.03;;;;;;;-143.84;78.04;45050.97;5090796;28;20497;-55
2023/08/15 01:47:21;;;;;;;15.80;5.87;;;;;;;-143.84;78.12;45026.22;5090923;28;20837;-56
2023/08/15 01:49:48;;;;;;;6.93;6.10;;;;;;;-143.84;78.32;45035.75;5091121;28;20439;-56
2023/08/15 01:52:15;;;;;;;10.90;7.20;;;;;;;-143.84;77.46;45016.69;5089733;28;20474;-55
2023/08/15 01:54:42;;;;;;;15.97;7.30;;;;;;;-143.84;78.18;45026.22;5090994;28;21154;-55
2023/08/15 01:57:11;;;;;;;9.63;6.33;;;;;;;-143.84;77.46;45047.16;5090863;28;20447;-56
2023/08/15 01:59:38;;;;;;;10.70;6.03;;;;;;;-143.84;77.31;45018.59;5090810;28;20487;-55
2023/08/15 02:02:06;;;;;;;14.50;6.30;;;;;;;-143.84;77.24;45026.22;5091148;28;20497;-56
2023/08/15 02:04:34;;;;;;;8.40;5.83;;;;;;;-143.84;77.03;45022.41;5090758;28;20507;-55
2023/08/15 02:07:01;;;;;;;17.40;6.10;;;;;;;-143.84;77.01;45041.44;5090833;28;20439;-56
2023/08/15 02:09:28;;;;;;;9.60;6.10;;;;;;;-143.84;76.77;45030.03;5090804;28;20443;-56
2023/08/15 02:11:55;;;;;;;14.97;6.90;;;;;;;-143.84;76.48;45026.22;5090642;28;20501;-56
2023/08/15 02:14:24;;;;;;;9.33;5.90;;;;;;;-143.84;76.15;45045.25;5090784;28;20443;-56
2023/08/15 02:16:51;;;;;;;9.93;6.00;;;;;;;-143.84;76.24;45037.66;5090845;28;20842;-56
2023/08/15 02:19:19;;;;;;;15.67;7.43;;;;;;;-143.84;76.02;45026.22;5090493;28;20440;-56
2023/08/15 02:21:46;;;;;;;12.67;6.00;;;;;;;-143.84;76.43;45026.22;5090702;28;20857;-56
2023/08/15 02:24:13;;;;;;;11.13;6.40;;;;;;;-143.84;76.13;45010.97;5090421;28;20435;-56
2023/08/15 02:26:40;;;;;;;15.00;6.63;;;;;;;-143.84;76.29;45052.88;5090626;28;21260;-56
2023/08/15 02:29:07;;;;;;;15.30;6.43;;;;;;;-143.84;76.28;45039.53;5090344;28;20505;-56
2023/08/15 02:31:43;;;;;;;12.77;6.87;;;;;;;-143.84;76.60;45026.22;5090687;28;21011;-56
2023/08/15 02:34:10;;;;;;;8.73;6.10;;;;;;;-143.84;76.79;45043.34;5090424;28;20444;-56
2023/08/15 02:36:37;;;;;;;7.37;6.63;;;;;;;-143.84;77.20;45022.41;5090235;28;20443;-57
2023/08/15 02:39:04;;;;;;;9.53;6.17;;;;;;;-143.84;77.32;45047.16;5090318;28;20443;-56
2023/08/15 02:41:32;;;;;;;10.23;6.30;;;;;;;-143.84;77.20;45018.59;5090197;28;20529;-56
2023/08/15 02:43:59;;;;;;;11.77;6.80;;;;;;;-143.84;76.96;45012.88;5090523;28;20436;-56
2023/08/15 02:46:28;;;;;;;8.67;6.57;;;;;;;-143.84;77.54;45031.94;5090490;28;20508;-56
2023/08/15 02:48:56;;;;;;;8.13;6.30;;;;;;;-143.84;77.82;45047.16;5090187;28;20436;-56
2023/08/15 02:51:23;;;;;;;16.03;6.50;;;;;;;-143.84;77.94;45026.22;5090037;28;21085;-56
2023/08/15 02:53:51;;;;;;;15.57;7.30;;;;;;;-143.84;77.71;45018.59;5089915;28;20518;-56
2023/08/15 02:56:18;;;;;;;8.83;6.33;;;;;;;-143.84;77.59;45035.75;5089898;28;20961;-56
2023/08/15 02:58:45;;;;;;;10.23;6.97;;;;;;;-143.84;77.28;45026.22;5089949;28;20446;-56
2023/08/15 03:01:13;;;;;;;7.87;5.87;;;;;;;-143.84;76.76;45009.09;5089982;28;21244;-51
2023/08/15 03:03:40;;;;;;;8.90;7.37;;;;;;;-143.84;77.13;45037.66;5089688;28;20485;-51
2023/08/15 03:06:08;;;;;;;12.87;6.60;;;;;;;-143.84;77.20;45024.31;5090079;28;20519;-50
2023/08/15 03:08:35;;;;;;;7.90;6.33;;;;;;;-143.84;77.01;45045.25;5089915;28;20444;-51
2023/08/15 03:11:02;;;;;;;9.33;5.53;;;;;;;-143.84;77.27;45018.59;5090418;28;20448;-51
2023/08/15 03:13:29;;;;;;;10.27;6.30;;;;;;;-143.84;77.46;45052.88;5090119;28;20451;-54
2023/08/15 03:15:58;;;;;;;8.33;6.40;;;;;;;-143.84;77.75;45039.53;5089522;28;20509;-54
2023/08/15 03:18:25;;;;;;;13.30;7.33;;;;;;;-143.84;77.84;45037.66;5089519;28;20489;-54
2023/08/15 03:20:59;;;;;;;15.83;7.23;;;;;;;-143.84;77.88;45043.34;5089107;28;20898;-54
2023/08/15 03:23:28;;;;;;;9.87;6.50;;;;;;;-143.84;77.70;45010.97;5089275;28;20452;-54
2023/08/15 03:25:56;;;;;;;9.60;6.70;;;;;;;-143.84;76.90;45028.13;5089308;28;20440;-54
2023/08/15 03:28:24;;;;;;;7.30;6.00;;;;;;;-143.84;76.46;45016.69;5089323;28;20921;-54
2023/08/15 03:30:51;;;;;;;15.00;6.57;;;;;;;-143.84;75.52;45064.31;5089334;28;20455;-54
2023/08/15 03:33:18;;;;;;;14.10;5.97;;;;;;;-143.84;75.74;45041.44;5089632;28;20431;-54
2023/08/15 03:35:46;;;;;;;8.20;6.10;;;;;;;-143.84;75.13;45035.75;5089112;28;20493;-54
2023/08/15 03:38:16;;;;;;;14.03;6.07;;;;;;;-143.84;74.66;45045.25;5089052;28;20522;-54
2023/08/15 03:40:45;;;;;;;12.73;6.17;;;;;;;-143.84;74.13;45050.97;5089068;28;21021;-54
2023/08/15 03:43:12;;;;;;;11.30;6.20;;;;;;;-143.84;73.98;45056.69;5089064;28;20823;-54
2023/08/15 03:45:40;;;;;;;13.93;6.57;;;;;;;-143.84;73.41;45045.25;5089153;28;20862;-54
2023/08/15 03:48:08;;;;;;;8.83;5.43;;;;;;;-143.84;72.90;45031.94;5089261;28;20804;-54
2023/08/15 03:50:36;;;;;;;15.10;6.30;;;;;;;-143.84;71.88;45030.03;5088935;28;20440;-54
2023/08/15 03:53:03;;;;;;;8.40;6.47;;;;;;;-143.84;71.16;45047.16;5089070;28;20444;-54
2023/08/15 03:55:31;;;;;;;8.57;5.67;;;;;;;-143.84;71.14;45037.66;5089145;28;20489;-54
2023/08/15 03:58:00;;;;;;;11.47;6.50;;;;;;;-143.84;70.55;45016.69;5089184;28;20439;-54
2023/08/15 04:00:27;;;;;;;10.40;6.50;;;;;;;-143.84;69.38;45033.84;5088650;28;20544;-54
2023/08/15 04:02:54;;;;;;;11.80;6.93;;;;;;;-143.84;68.57;45010.97;5088710;28;20488;-54
2023/08/15 04:05:21;;;;;;;9.50;5.63;;;;;;;-143.84;68.04;45037.66;5088448;28;20910;-54
2023/08/15 04:07:48;;;;;;;14.83;5.60;;;;;;;-143.84;67.70;45026.22;5088330;28;20489;-54
2023/08/15 04:10:16;;;;;;;7.30;5.43;;;;;;;-143.84;67.42;45041.44;5087985;28;20953;-54
2023/08/15 04:12:44;;;;;;;17.17;6.27;;;;;;;-143.84;67.27;45020.50;5088715;28;20432;-54
2023/08/15 04:15:13;;;;;;;7.23;5.47;;;;;;;-143.84;67.44;45035.75;5090900;28;20445;-54
2023/08/15 04:17:40;;;;;;;21.57;5.90;;;;;;;-143.84;66.58;45026.22;5092869;28;20444;-54
2023/08/15 04:20:10;;;;;;;16.50;6.87;;;;;;;-143.84;66.43;45031.94;5092857;28;20479;-54
2023/08/15 04:22:38;;;;;;;8.60;6.37;;;;;;;-143.84;66.58;45014.78;5092879;28;20458;-54
2023/08/15 04:25:07;;;;;;;9.13;5.73;;;;;;;-143.84;66.51;45031.94;5092829;28;20443;-54
2023/08/15 04:27:34;;;;;;;11.13;6.17;;;;;;;-143.84;66.61;45010.97;5092635;28;20534;-54
2023/08/15 04:30:01;;;;;;;9.90;5.27;;;;;;;-143.84;67.05;45033.84;5092462;28;21018;-54
2023/08/15 04:32:29;;;;;;;9.30;5.43;;;;;;;-143.84;66.90;45028.13;5092552;28;20436;-54
2023/08/15 04:34:57;;;;;;;12.87;6.30;;;;;;;-143.84;66.36;45037.66;5092367;28;20450;-54
2023/08/15 04:37:24;;;;;;;7.47;6.07;;;;;;;-143.84;65.93;45028.13;5092595;28;20428;-54
2023/08/15 04:39:51;;;;;;;9.83;5.83;;;;;;;-143.84;65.76;45012.88;5092196;28;20448;-54
2023/08/15 04:42:18;;;;;;;11.33;6.73;;;;;;;-143.84;65.82;45010.97;5092721;28;21031;-54
2023/08/15 04:44:46;;;;;;;11.73;5.93;;;;;;;-143.84;64.92;44999.56;5092546;28;20855;-54
2023/08/15 04:47:13;;;;;;;13.80;6.77;;;;;;;-143.84;64.42;44982.41;5092285;28;20501;-54
2023/08/15 04:49:42;;;;;;;6.77;5.73;;;;;;;-143.84;64.01;45007.19;5092086;28;20516;-54
2023/08/15 04:52:09;;;;;;;9.83;5.93;;;;;;;-143.84;62.76;44976.72;5092022;28;20452;-54
2023/08/15 04:54:36;;;;;;;16.13;6.37;;;;;;;-143.84;61.92;44997.66;5092122;28;20440;-54
2023/08/15 04:57:03;;;;;;;15.03;7.07;;;;;;;-143.84;61.27;45003.38;5092130;28;20447;-55
2023/08/15 04:59:31;;;;;;;11.50;6.67;;;;;;;-143.84;61.12;44986.22;5092068;28;20467;-55
2023/08/15 05:01:58;;;;;;;14.30;6.33;;;;;;;-143.84;60.04;44991.94;5091813;28;20475;-54
2023/08/15 05:04:25;;;;;;;9.50;6.03;;;;;;;-143.84;59.30;44982.41;5091537;28;20479;-54
2023/08/15 05:06:53;;;;;;;14.07;6.67;;;;;;;-143.84;57.98;44971.00;5091972;28;20435;-54
2023/08/15 05:09:21;;;;;;;14.53;7.23;;;;;;;-143.84;58.21;44971.00;5091788;28;20470;-54
2023/08/15 05:11:48;;;;;;;7.77;6.60;;;;;;;-143.84;57.73;44957.66;5092000;28;20435;-54
2023/08/15 05:14:15;;;;;;;7.90;5.70;;;;;;;-143.84;57.43;44982.41;5091760;28;20448;-55
2023/08/15 05:16:42;;;;;;;9.10;5.83;;;;;;;-143.84;56.04;44972.91;5091773;28;21039;-54
2023/08/15 05:19:09;;;;;;;7.43;5.90;;;;;;;-143.84;55.54;44950.06;5091505;28;20444;-55
2023/08/15 05:21:36;;;;;;;7.97;6.53;;;;;;;-143.84;54.06;44953.88;5091467;28;20483;-54
2023/08/15 05:24:05;;;;;;;12.80;6.60;;;;;;;-143.84;54.23;44993.84;5091575;28;20432;-54
2023/08/15 05:26:32;;;;;;;10.60;5.90;;;;;;;-143.84;53.71;44931.00;5091342;28;20456;-54
2023/08/15 05:28:59;;;;;;;14.80;6.23;;;;;;;-143.84;53.07;44969.09;5091527;28;20932;-54
2023/08/15 05:31:27;;;;;;;8.17;6.63;;;;;;;-143.84;52.25;44982.41;5091399;28;20450;-54
2023/08/15 05:33:54;;;;;;;8.30;5.30;;;;;;;-143.84;52.22;44957.66;5091449;28;20432;-54
2023/08/15 05:36:22;;;;;;;12.80;6.10;;;;;;;-143.84;51.05;44951.97;5091423;28;20538;-54
2023/08/15 05:38:49;;;;;;;13.80;6.37;;;;;;;-143.84;50.39;44934.81;5091448;28;20505;-54
2023/08/15 05:41:18;;;;;;;12.03;7.17;;;;;;;-143.84;50.39;44953.88;5091316;28;20479;-54
2023/08/15 05:43:45;;;;;;;7.40;5.70;;;;;;;-143.84;49.69;44932.91;5091346;28;20440;-54
2023/08/15 05:46:12;;;;;;;14.00;6.63;;;;;;;-143.84;49.71;44950.06;5091550;28;21331;-54
2023/08/15 05:48:39;;;;;;;8.30;6.07;;;;;;;-143.84;49.93;44950.06;5091230;28;20450;-54
2023/08/15 05:51:06;;;;;;;24.17;5.93;;;;;;;-143.84;49.33;44934.81;5091469;28;20468;-54
2023/08/15 05:53:33;;;;;;;13.90;6.93;;;;;;;-143.84;48.89;44963.38;5091104;28;20444;-54
2023/08/15 05:56:00;;;;;;;9.43;6.20;;;;;;;-143.84;49.08;45005.28;5091429;28;20436;-54
2023/08/15 05:58:29;;;;;;;10.90;5.70;;;;;;;-143.84;49.16;44984.31;5091298;28;20463;-54
2023/08/15 06:00:56;;;;;;;11.53;7.00;;;;;;;-143.84;47.74;44963.38;5090944;28;20484;-54
2023/08/15 06:03:23;;;;;;;14.30;6.10;;;;;;;-143.84;48.05;44951.97;5090721;28;20586;-54
2023/08/15 06:05:50;;;;;;;7.37;6.00;;;;;;;-143.84;46.78;44940.53;5090857;28;20458;-54
2023/08/15 06:08:17;;;;;;;8.60;5.90;;;;;;;-143.84;47.45;44948.16;5090735;28;20446;-54
2023/08/15 06:10:44;;;;;;;17.20;6.47;;;;;;;-143.84;47.83;44948.16;5090877;28;20443;-55
2023/08/15 06:13:11;;;;;;;12.80;5.93;;;;;;;-143.84;46.72;44936.72;5090755;28;20432;-55
2023/08/15 06:15:40;;;;;;;27.40;8.50;;;;;;;-143.84;47.33;44936.72;5090441;28;20930;-55
2023/08/15 06:18:07;;;;;;;11.43;5.20;;;;;;;-143.84;47.54;44948.16;5090293;28;20440;-55
2023/08/15 06:20:34;;;;;;;8.60;6.03;;;;;;;-143.84;47.98;44946.25;5089349;28;20976;-54
2023/08/15 06:23:01;;;;;;;14.57;5.37;;;;;;;-143.84;49.00;44934.81;5089512;28;20874;-54
2023/08/15 06:25:28;;;;;;;11.50;5.80;;;;;;;-143.84;48.73;44950.06;5089651;28;20432;-54
2023/08/15 06:27:56;;;;;;;13.03;6.33;;;;;;;-143.84;48.70;44929.09;5089446;28;20504;-55
2023/08/15 06:30:23;;;;;;;8.83;6.17;;;;;;;-143.84;48.57;44948.16;5089274;28;20452;-54
2023/08/15 06:32:51;;;;;;;11.07;6.10;;;;;;;-143.84;48.68;44936.72;5090105;28;20432;-54
2023/08/15 06:35:18;;;;;;;11.77;6.13;;;;;;;-143.84;48.71;44951.97;5090076;28;20451;-54
2023/08/15 06:37:46;;;;;;;11.83;6.50;;;;;;;-143.84;48.68;44967.19;5089521;28;20938;-54
2023/08/15 06:40:13;;;;;;;12.90;6.93;;;;;;;-143.84;48.25;44946.25;5090441;28;20443;-54
2023/08/15 06:42:40;;;;;;;11.03;6.93;;;;;;;-143.84;49.12;44944.34;5090000;28;20483;-54
2023/08/15 06:45:11;;;;;;;9.47;6.63;;;;;;;-143.84;49.02;44932.91;5089757;28;21002;-54
2023/08/15 06:47:38;;;;;;;16.33;6.20;;;;;;;-143.84;49.77;44942.44;5089983;28;20964;-54
2023/08/15 06:50:08;;;;;;;11.47;6.80;;;;;;;-143.84;49.54;44984.31;5089864;28;20432;-54
2023/08/15 06:52:35;;;;;;;12.80;6.27;;;;;;;-143.84;50.90;44991.94;5089720;28;20440;-54
2023/08/15 06:55:03;;;;;;;20.33;6.70;;;;;;;-143.84;51.48;44976.72;5089900;28;20431;-54
2023/08/15 06:57:30;;;;;;;26.23;8.13;;;;;;;-143.84;52.32;44978.63;5089800;28;20451;-54
2023/08/15 06:59:58;;;;;;;39.30;7.57;;;;;;;-143.84;51.62;44965.28;5089600;28;20436;-55
2023/08/15 07:02:25;;;;;;;26.50;7.90;;;;;;;-143.84;50.90;45010.97;5089760;28;20484;-55
2023/08/15 07:04:52;;;;;;;24.00;7.80;;;;;;;-143.84;50.65;44988.13;5089331;28;20486;-54
2023/08/15 07:07:20;;;;;;;27.87;7.83;;;;;;;-143.84;51.57;44993.84;5089657;28;20440;-54
2023/08/15 07:09:48;;;;;;;9.80;6.47;;;;;;;-143.84;51.30;45003.38;5089551;28;20493;-55
2023/08/15 07:12:17;;;;;;;15.87;7.73;;;;;;;-143.84;51.65;44982.41;5089736;28;20432;-55
2023/08/15 07:14:46;;;;;;;17.47;6.70;;;;;;;-143.84;51.66;44969.09;5089519;28;20444;-55
2023/08/15 07:17:13;;;;;;;15.80;7.00;;;;;;;-143.84;50.62;44948.16;5089509;28;20448;-55
2023/08/15 07:19:40;;;;;;;9.13;6.30;;;;;;;-143.84;52.08;44986.22;5089485;28;20858;-55
2023/08/15 07:22:08;;;;;;;12.30;6.97;;;;;;;-143.84;52.21;44969.09;5089397;28;20890;-54
2023/08/15 07:24:37;;;;;;;19.77;7.97;;;;;;;-143.84;51.98;44976.72;5089168;28;20436;-55
2023/08/15 07:27:04;;;;;;;11.47;6.97;;;;;;;-143.84;51.50;44971.00;5089263;28;20436;-54
2023/08/15 07:29:31;;;;;;;12.23;7.43;;;;;;;-143.84;51.50;44967.19;5089073;28;20440;-55
2023/08/15 07:31:58;;;;;;;17.70;7.60;;;;;;;-143.84;50.84;44955.75;5089332;28;20448;-55
2023/08/15 07:34:25;;;;;;;10.30;6.37;;;;;;;-143.84;50.07;44974.81;5089165;28;20444;-55
2023/08/15 07:36:52;;;;;;;11.30;6.70;;;;;;;-143.84;49.27;44976.72;5089172;28;20960;-55
2023/08/15 07:39:19;;;;;;;12.43;6.60;;;;;;;-143.84;48.68;44965.28;5089133;28;20817;-55
2023/08/15 07:41:48;;;;;;;7.90;6.27;;;;;;;-143.84;48.58;44942.44;5088892;28;20484;-55
2023/08/15 07:44:15;;;;;;;6.17;5.67;;;;;;;-143.84;48.28;44921.50;5089012;28;20523;-55
2023/08/15 07:46:42;;;;;;;9.50;6.17;;;;;;;-143.84;48.22;44955.75;5089093;28;20804;-55
2023/08/15 07:49:10;;;;;;;22.17;6.80;;;;;;;-143.84;48.17;44948.16;5088277;28;20444;-55
2023/08/15 07:51:37;;;;;;;14.17;6.00;;;;;;;-143.84;47.91;44942.44;5088881;28;20444;-55
2023/08/15 07:54:04;;;;;;;17.67;5.87;;;;;;;-143.84;47.33;44948.16;5088726;28;20451;-55
2023/08/15 07:56:33;;;;;;;13.30;6.87;;;;;;;-143.84;48.69;44923.41;5089230;28;20455;-55
2023/08/15 07:59:03;;;;;;;12.57;6.70;;;;;;;-143.84;47.45;44946.25;5088660;28;20448;-55
2023/08/15 08:01:30;;;;;;;8.23;6.03;;;;;;;-143.84;47.03;44961.47;5088906;28;20475;-55
2023/08/15 08:03:57;;;;;;;10.40;6.20;;;;;;;-143.84;46.76;44957.66;5088642;28;20483;-55
2023/08/15 08:06:24;;;;;;;9.93;6.30;;;;;;;-143.84;47.06;44951.97;5088849;28;20953;-55
2023/08/15 08:08:51;;;;;;;10.33;6.20;;;;;;;-143.84;47.33;44969.09;5088728;28;20440;-55
2023/08/15 08:11:18;;;;;;;19.03;6.40;;;;;;;-143.84;47.38;44931.00;5088641;28;20501;-54
2023/08/15 08:13:46;;;;;;;10.53;6.07;;;;;;;-143.84;47.09;44950.06;5088977;28;20822;-55
2023/08/15 08:16:14;;;;;;;8.97;6.30;;;;;;;-143.84;46.60;44948.16;5088648;28;20439;-55
2023/08/15 08:18:41;;;;;;;18.43;6.47;;;;;;;-143.84;46.54;44953.88;5088677;28;20472;-55
2023/08/15 08:21:09;;;;;;;17.43;7.10;;;;;;;-143.84;45.81;44919.59;5088772;28;20481;-55
2023/08/15 08:23:36;;;;;;;12.93;5.80;;;;;;;-143.84;45.11;44910.06;5088671;28;20447;-55
2023/08/15 08:26:03;;;;;;;23.77;7.20;;;;;;;-143.84;45.49;44944.34;5088456;28;20443;-55
2023/08/15 08:28:32;;;;;;;13.27;6.07;;;;;;;-143.84;45.52;44944.34;5088686;28;20937;-55
2023/08/15 08:30:59;;;;;;;11.53;6.80;;;;;;;-143.84;46.24;44913.88;5088632;28;20444;-55
2023/08/15 08:33:28;;;;;;;19.03;6.57;;;;;;;-143.84;45.99;44942.44;5088433;28;20926;-55
2023/08/15 08:35:56;;;;;;;10.03;6.20;;;;;;;-143.84;46.18;44940.53;5088921;28;20444;-55
2023/08/15 08:38:23;;;;;;;10.23;5.93;;;;;;;-143.84;47.07;44955.75;5088860;28;20532;-55
2023/08/15 08:40:50;;;;;;;13.20;6.60;;;;;;;-143.84;47.28;44948.16;5088631;28;20432;-54
2023/08/15 08:43:19;;;;;;;9.03;6.50;;;;;;;-143.84;48.28;44978.63;5088684;28;20471;-55
2023/08/15 08:45:49;;;;;;;13.20;6.60;;;;;;;-143.84;47.49;44942.44;5088327;28;20866;-55
2023/08/15 08:48:18;;;;;;;7.97;6.30;;;;;;;-143.84;48.40;44938.63;5088153;28;20464;-54
2023/08/15 08:50:46;;;;;;;14.90;6.50;;;;;;;-143.84;47.94;44938.63;5087646;28;20439;-54
2023/08/15 08:53:14;;;;;;;15.77;6.00;;;;;;;-143.84;46.82;44936.72;5088640;28;20451;-55
2023/08/15 08:55:41;;;;;;;9.00;6.90;;;;;;;-143.84;47.17;44955.75;5088322;28;21287;-54
2023/08/15 08:58:11;;;;;;;10.87;6.00;;;;;;;-143.84;45.60;44931.00;5088539;28;20444;-54
2023/08/15 09:00:41;;;;;;;8.17;6.00;;;;;;;-143.84;45.58;44929.09;5089187;28;20432;-54
2023/08/15 09:03:09;;;;;;;11.60;5.73;;;;;;;-143.84;45.24;44917.69;5091992;28;20592;-55
2023/08/15 09:05:37;;;;;;;8.00;5.57;;;;;;;-143.84;44.67;44910.06;5091804;28;20932;-55
2023/08/15 09:08:06;;;;;;;12.17;6.50;;;;;;;-143.84;44.88;44934.81;5091973;28;20991;-54
2023/08/15 09:10:33;;;;;;;18.73;5.60;;;;;;;-143.84;43.62;44944.34;5091741;28;20451;-55
2023/08/15 09:13:03;;;;;;;21.23;6.20;;;;;;;-143.84;44.78;44919.59;5092088;28;20436;-55
2023/08/15 09:15:30;;;;;;;7.27;6.20;;;;;;;-143.84;43.96;44894.84;5091806;28;20436;-54
2023/08/15 09:18:01;;;;;;;7.77;5.80;;;;;;;-143.84;43.60;44885.31;5092144;28;20852;-55
2023/08/15 09:20:29;;;;;;;13.97;6.37;;;;;;;-143.84;43.57;44887.22;5091722;28;20485;-54
2023/08/15 09:22:58;;;;;;;14.70;6.50;;;;;;;-143.84;43.79;44858.66;5091601;28;20529;-55
2023/08/15 09:25:29;;;;;;;8.57;6.03;;;;;;;-143.84;43.69;44904.34;5091380;28;20444;-55
2023/08/15 09:27:56;;;;;;;6.53;5.83;;;;;;;-143.84;43.92;44889.13;5091863;28;20440;-54
2023/08/15 09:30:24;;;;;;;9.07;6.13;;;;;;;-143.84;42.85;44873.88;5091527;28;20443;-55
2023/08/15 09:32:51;;;;;;;14.23;6.20;;;;;;;-143.84;42.75;44870.09;5091684;28;20489;-55
2023/08/15 09:35:19;;;;;;;12.93;6.23;;;;;;;-143.84;42.66;44889.13;5091357;28;20495;-54
2023/08/15 09:37:48;;;;;;;17.47;6.50;;;;;;;-143.84;42.07;44873.88;5091544;28;20806;-54
2023/08/15 09:40:20;;;;;;;8.20;4.90;;;;;;;-143.84;42.13;44910.06;5091467;28;20581;-54
2023/08/15 09:42:48;;;;;;;11.53;6.30;;;;;;;-143.84;42.48;44887.22;5091515;28;20539;-54
2023/08/15 09:45:17;;;;;;;17.67;6.47;;;;;;;-143.84;42.48;44870.09;5091221;28;20505;-55
2023/08/15 09:47:45;;;;;;;19.80;5.93;;;;;;;-143.84;42.05;44877.69;5091273;28;20447;-54
2023/08/15 09:50:14;;;;;;;18.97;5.63;;;;;;;-143.84;42.61;44862.47;5091080;28;20442;-54
2023/08/15 09:52:43;;;;;;;8.80;6.30;;;;;;;-143.84;42.91;44858.66;5090958;28;20447;-54
2023/08/15 09:55:11;;;;;;;10.00;5.27;;;;;;;-143.84;42.32;44873.88;5090836;28;20443;-54
2023/08/15 09:57:39;;;;;;;12.63;6.30;;;;;;;-143.84;42.71;44877.69;5091121;28;20432;-54
2023/08/15 10:00:11;;;;;;;15.20;5.70;;;;;;;-143.84;42.14;44877.69;5090979;28;20469;-54
2023/08/15 10:02:44;;;;;;;16.73;6.60;;;;;;;-143.84;42.57;44900.53;5090668;28;20500;-54
2023/08/15 10:05:12;;;;;;;16.20;5.20;;;;;;;-143.84;42.80;44866.28;5091064;28;20444;-54
2023/08/15 10:07:42;;;;;;;11.63;5.77;;;;;;;-143.84;41.80;44862.47;5090629;28;20938;-54
2023/08/15 10:10:10;;;;;;;17.57;5.70;;;;;;;-143.84;41.67;44885.31;5090707;28;20439;-54
2023/08/15 10:12:40;;;;;;;10.53;6.30;;;;;;;-143.84;41.54;44866.28;5089743;28;20448;-54
2023/08/15 10:15:10;;;;;;;12.93;6.17;;;;;;;-143.84;42.00;44860.56;5090716;28;20543;-54
2023/08/15 10:17:39;;;;;;;14.00;6.80;;;;;;;-143.84;41.94;44904.34;5090601;28;20440;-54
2023/08/15 10:20:10;;;;;;;10.23;6.07;;;;;;;-143.84;42.94;44875.78;5090518;28;20447;-54
2023/08/15 10:22:38;;;;;;;14.87;5.90;;;;;;;-143.84;41.51;44900.53;5090180;28;20480;-54
2023/08/15 10:25:33;;;;;;;11.23;5.60;;;;;;;-143.84;41.32;44877.69;5090379;28;20432;-54
2023/08/15 10:28:06;;;;;;;12.40;6.00;;;;;;;-143.84;41.68;44889.13;5090174;28;20475;-54
2023/08/15 10:30:37;;;;;;;24.40;6.70;;;;;;;-143.84;42.21;44904.34;5090311;28;20836;-54
2023/08/15 10:33:17;;;;;;;21.23;7.07;;;;;;;-143.84;42.68;44868.19;5090370;28;20497;-54
2023/08/15 10:35:50;;;;;;;9.97;6.33;;;;;;;-143.84;41.72;44891.03;5090217;28;20782;-54
2023/08/15 10:38:20;;;;;;;14.27;6.83;;;;;;;-143.84;41.34;44871.97;5089922;28;20439;-54
2023/08/15 10:40:48;;;;;;;17.73;6.17;;;;;;;-143.84;41.96;44889.13;5090171;28;20436;-55
2023/08/15 10:43:16;;;;;;;11.27;6.57;;;;;;;-143.84;41.77;44862.47;5089874;28;20475;-54
2023/08/15 10:45:49;;;;;;;17.23;6.23;;;;;;;-143.84;41.44;44881.50;5090134;28;20432;-54
2023/08/15 10:48:36;;;;;;;13.13;6.30;;;;;;;-143.84;41.64;44871.97;5090084;28;20975;-55
2023/08/15 10:51:03;;;;;;;16.30;6.70;;;;;;;-143.84;42.04;44889.13;5089685;28;21305;-54
2023/08/15 10:53:30;;;;;;;9.80;6.00;;;;;;;-143.84;42.08;44896.75;5089086;28;20447;-54
2023/08/15 10:55:59;;;;;;;10.00;6.10;;;;;;;-143.84;43.28;44891.03;5089100;28;20442;-54
2023/08/15 10:58:27;;;;;;;11.60;6.20;;;;;;;-143.84;43.59;44902.44;5088856;28;20448;-54
2023/08/15 11:00:55;;;;;;;12.00;6.87;;;;;;;-143.84;43.48;44902.44;5089105;28;20440;-54
2023/08/15 11:03:23;;;;;;;10.93;7.20;;;;;;;-143.84;43.63;44919.59;5088724;28;20507;-54
2023/08/15 11:05:50;;;;;;;9.73;6.10;;;;;;;-143.84;43.70;44908.16;5089483;28;20476;-54
2023/08/15 11:08:20;;;;;;;9.10;6.30;;;;;;;-143.84;43.22;44881.50;5089332;28;21022;-54
2023/08/15 11:10:50;;;;;;;15.40;7.10;;;;;;;-143.84;43.11;44906.25;5088841;28;20954;-54
2023/08/15 11:13:17;;;;;;;14.10;5.90;;;;;;;-143.84;43.25;44898.66;5089057;28;20497;-54
2023/08/15 11:15:46;;;;;;;11.30;5.97;;;;;;;-143.84;43.45;44896.75;5089654;28;20432;-54